Delta Virtual Airport Information Service

Malaga Costa Del Sol Airport

ICAO: LEMG Country: Spain
Latitude: 36.6749 Longitude: -4.4991
Latest Arrival : DAC4589 (LPMA-LEMG) Latest Departure : DAC1067 (LEMG-DTTJ)


WX CaptureLIVE
Data provided by noaa.gov | Fetched at 08:23:47

METAR : LEMG 061400Z 12003KT 060V210 9000 FEW015 OVC060 16/12 Q1016 NOSIG

TAF : LEMG 061100Z 0612/0712 27004KT 9999 FEW015 SCT040 TX17/0614Z TN12/0706Z BECMG 0612/0614 13006KT PROB30 TEMPO 0700/0706 4000 RA BECMG 0700/0702 29006KT


Runway Data for LEMG
Data provided by openaviationdata.com

Runway ID Mag Var Hdg Length Elevation Surface ILS Freq ILS Id ILS Slope
12 -3 120° 10138 ft 52 ft Asphalt 110.55 IMG 3
13 -3 134° 10499 ft 52 ft Asphalt 109.5 GMM 3
31 -3 314° 10499 ft 52 ft Asphalt 109.9 GAA 3

Malaga Costa Del Sol Airport, Spain
Use only for reference purposes



Not for navigational purposes.